createdAt,value
2018-08-14T00:00:10.058Z,11.00
2018-08-14T00:01:50.263Z,17.20
2018-08-14T00:03:30.854Z,15.60
2018-08-14T00:05:10.284Z,13.40
2018-08-14T00:06:45.587Z,16.20
2018-08-14T00:08:24.008Z,11.60
2018-08-14T00:09:59.885Z,14.20
2018-08-14T00:11:34.822Z,15.00
2018-08-14T00:13:12.250Z,14.00
2018-08-14T00:14:47.695Z,17.00
2018-08-14T00:16:23.608Z,17.20
2018-08-14T00:17:58.858Z,15.20
2018-08-14T00:19:33.794Z,20.80
2018-08-14T00:21:08.694Z,21.00
2018-08-14T00:22:44.246Z,16.80
2018-08-14T00:24:20.842Z,24.00
2018-08-14T00:25:57.108Z,27.20
2018-08-14T00:27:32.105Z,23.80
2018-08-14T00:29:07.304Z,23.20
2018-08-14T00:30:42.315Z,19.60
2018-08-14T00:32:17.647Z,17.00
2018-08-14T00:33:54.049Z,25.80
2018-08-14T00:35:29.105Z,23.80
2018-08-14T00:37:04.256Z,25.20
2018-08-14T00:38:41.858Z,22.20
2018-08-14T00:40:20.441Z,27.60
2018-08-14T00:41:55.410Z,23.60
2018-08-14T00:43:32.929Z,21.00
2018-08-14T00:45:12.891Z,28.40
2018-08-14T00:46:47.986Z,23.20
2018-08-14T00:48:23.288Z,25.20
2018-08-14T00:49:58.317Z,24.40
2018-08-14T00:51:33.420Z,27.80
2018-08-14T00:53:08.715Z,28.20
2018-08-14T00:54:43.736Z,26.80
2018-08-14T00:56:20.123Z,23.00
2018-08-14T00:57:54.955Z,25.20
2018-08-14T00:59:29.810Z,25.80
2018-08-14T01:01:06.609Z,25.60
2018-08-14T01:02:41.696Z,32.00
2018-08-14T01:04:18.223Z,34.00
2018-08-14T01:05:53.223Z,32.40
2018-08-14T01:07:28.050Z,37.80
2018-08-14T01:09:03.227Z,27.20
2018-08-14T01:10:38.112Z,39.00
2018-08-14T01:12:13.364Z,45.00
2018-08-14T01:13:48.341Z,39.00
2018-08-14T01:15:27.888Z,40.60
2018-08-14T01:17:03.520Z,32.60
2018-08-14T01:18:38.479Z,45.00
2018-08-14T01:20:15.076Z,39.40
2018-08-14T01:21:51.806Z,41.60
2018-08-14T01:23:26.694Z,51.00
2018-08-14T01:25:02.497Z,44.00
2018-08-14T01:26:43.214Z,39.00
2018-08-14T01:28:19.261Z,46.00
2018-08-14T01:29:56.333Z,36.40
2018-08-14T01:31:32.248Z,49.60
2018-08-14T01:33:07.508Z,36.60
2018-08-14T01:34:42.728Z,43.60
2018-08-14T01:36:17.512Z,35.80
2018-08-14T01:37:52.575Z,49.60
2018-08-14T01:39:27.546Z,38.60
2018-08-14T01:41:02.904Z,35.40
2018-08-14T01:42:38.222Z,35.40
2018-08-14T01:44:15.757Z,38.80
2018-08-14T01:45:51.046Z,34.00
2018-08-14T01:47:27.526Z,43.80
2018-08-14T01:49:03.413Z,38.20
2018-08-14T01:50:38.691Z,42.00
2018-08-14T01:52:14.525Z,31.40
2018-08-14T01:53:49.444Z,51.40
2018-08-14T01:55:25.351Z,39.60
2018-08-14T01:57:00.246Z,38.20
2018-08-14T01:58:37.428Z,52.00
2018-08-14T02:00:13.778Z,40.40
2018-08-14T02:01:48.691Z,46.60
2018-08-14T02:03:25.413Z,42.80
2018-08-14T02:05:00.781Z,40.80
2018-08-14T02:06:36.533Z,38.00
2018-08-14T02:08:13.648Z,44.20
2018-08-14T02:09:48.630Z,40.60
2018-08-14T02:11:41.729Z,49.60
2018-08-14T02:13:17.624Z,34.20
2018-08-14T02:14:54.856Z,48.20
2018-08-14T02:16:31.712Z,43.80
2018-08-14T02:18:07.158Z,43.60
2018-08-14T02:19:44.540Z,47.20
2018-08-14T02:21:19.512Z,39.80
2018-08-14T02:22:57.086Z,51.60
2018-08-14T02:24:33.102Z,40.00
2018-08-14T02:26:08.008Z,42.40
2018-08-14T02:27:43.992Z,45.00
2018-08-14T02:29:19.287Z,38.40
2018-08-14T02:30:56.258Z,38.80
2018-08-14T02:32:31.395Z,40.20
2018-08-14T02:34:06.671Z,46.00
2018-08-14T02:35:41.647Z,40.20
2018-08-14T02:37:17.066Z,39.20
2018-08-14T02:38:52.592Z,38.80
2018-08-14T02:40:27.953Z,33.20
2018-08-14T02:42:05.954Z,40.00
2018-08-14T02:43:42.122Z,45.20
2018-08-14T02:45:18.986Z,38.80
2018-08-14T02:46:56.171Z,47.80
2018-08-14T02:48:35.717Z,50.60
2018-08-14T02:50:12.898Z,40.60
2018-08-14T02:51:48.125Z,52.40
2018-08-14T02:53:23.536Z,42.60
2018-08-14T02:54:58.410Z,40.00
2018-08-14T02:56:33.272Z,42.80
2018-08-14T02:58:08.308Z,50.20
2018-08-14T02:59:44.815Z,42.80
2018-08-14T03:01:20.610Z,41.40
2018-08-14T03:02:55.568Z,46.20
2018-08-14T03:04:32.160Z,56.60
2018-08-14T03:06:07.293Z,45.60
2018-08-14T03:07:42.184Z,46.60
2018-08-14T03:09:19.347Z,50.80
2018-08-14T03:10:54.384Z,50.40
2018-08-14T03:12:29.282Z,51.80
2018-08-14T03:14:04.294Z,46.40
2018-08-14T03:15:39.822Z,45.40
2018-08-14T03:17:19.932Z,50.80
2018-08-14T03:18:55.466Z,43.00
2018-08-14T03:20:32.478Z,50.20
2018-08-14T03:22:07.380Z,44.40
2018-08-14T03:23:44.257Z,43.60
2018-08-14T03:25:20.536Z,43.60
2018-08-14T03:26:55.552Z,43.60
2018-08-14T03:28:31.325Z,49.20
2018-08-14T03:30:09.338Z,44.00
2018-08-14T03:31:44.267Z,50.60
2018-08-14T03:33:19.560Z,53.00
2018-08-14T03:34:54.540Z,44.80
2018-08-14T03:36:29.503Z,46.80
2018-08-14T03:38:04.833Z,52.20
2018-08-14T03:39:40.488Z,45.20
2018-08-14T03:41:15.549Z,50.60
2018-08-14T03:42:50.994Z,53.60
2018-08-14T03:44:25.950Z,52.20
2018-08-14T03:46:00.847Z,48.80
2018-08-14T03:47:36.141Z,46.60
2018-08-14T03:49:11.730Z,43.00
2018-08-14T03:50:47.078Z,44.20
2018-08-14T03:52:22.302Z,45.00
2018-08-14T03:54:03.855Z,41.40
2018-08-14T03:55:42.078Z,43.40
2018-08-14T03:57:25.243Z,46.20
2018-08-14T03:59:04.177Z,37.40
2018-08-14T04:00:45.680Z,53.40
2018-08-14T04:02:22.304Z,58.60
2018-08-14T04:03:58.476Z,51.20
2018-08-14T04:05:41.945Z,52.40
2018-08-14T04:07:20.610Z,51.40
2018-08-14T04:08:56.018Z,41.60
2018-08-14T04:10:31.439Z,59.60
2018-08-14T04:12:06.435Z,57.40
2018-08-14T04:13:42.428Z,51.00
2018-08-14T04:15:17.574Z,53.20
2018-08-14T04:16:53.945Z,47.40
2018-08-14T04:18:28.901Z,45.80
2018-08-14T04:20:05.300Z,67.40
2018-08-14T04:21:40.289Z,59.80
2018-08-14T04:23:15.421Z,55.00
2018-08-14T04:24:51.746Z,59.40
2018-08-14T04:26:26.625Z,65.40
2018-08-14T04:28:01.617Z,65.20
2018-08-14T04:29:36.581Z,70.80
2018-08-14T04:31:11.529Z,70.40
2018-08-14T04:32:46.604Z,52.80
2018-08-14T04:34:21.517Z,71.40
2018-08-14T04:36:00.940Z,58.00
2018-08-14T04:37:37.109Z,57.20
2018-08-14T04:39:12.599Z,66.60
2018-08-14T04:40:47.543Z,66.40
2018-08-14T04:42:23.277Z,58.60
2018-08-14T04:44:00.571Z,64.00
2018-08-14T04:45:35.757Z,66.00
2018-08-14T04:47:11.108Z,64.60
2018-08-14T04:48:46.969Z,66.80
2018-08-14T04:50:21.921Z,68.00
2018-08-14T04:51:57.126Z,63.80
2018-08-14T04:53:32.877Z,61.40
2018-08-14T04:55:10.084Z,61.80
2018-08-14T04:56:45.109Z,54.00
2018-08-14T04:58:21.004Z,56.20
2018-08-14T04:59:56.510Z,55.40
2018-08-14T05:01:31.454Z,69.40
2018-08-14T05:03:08.386Z,49.60
2018-08-14T05:04:43.273Z,49.40
2018-08-14T05:06:18.266Z,56.80
2018-08-14T05:07:53.168Z,65.60
2018-08-14T05:09:28.173Z,61.20
2018-08-14T05:11:04.360Z,61.40
2018-08-14T05:12:39.798Z,60.40
2018-08-14T05:14:14.633Z,44.20
2018-08-14T05:15:49.574Z,50.20
2018-08-14T05:17:24.664Z,48.80
2018-08-14T05:19:01.071Z,52.40
2018-08-14T05:20:36.606Z,61.20
2018-08-14T05:22:13.094Z,41.60
2018-08-14T05:23:48.144Z,43.20
2018-08-14T05:25:27.576Z,50.00
2018-08-14T05:27:06.310Z,53.40
2018-08-14T05:28:41.283Z,54.00
2018-08-14T05:30:18.081Z,43.80
2018-08-14T05:31:53.045Z,38.80
2018-08-14T05:33:28.492Z,46.80
2018-08-14T05:35:05.230Z,51.20
2018-08-14T05:36:40.765Z,55.40
2018-08-14T05:38:16.005Z,56.00
2018-08-14T05:39:51.090Z,49.60
2018-08-14T05:41:26.370Z,60.40
2018-08-14T05:43:01.288Z,57.60
2018-08-14T05:44:39.024Z,62.80
2018-08-14T05:46:13.995Z,56.00
2018-08-14T05:47:49.654Z,62.00
2018-08-14T05:49:25.186Z,53.20
2018-08-14T05:51:00.677Z,48.00
2018-08-14T05:52:37.585Z,60.20
2018-08-14T05:54:13.946Z,59.20
2018-08-14T05:55:49.394Z,60.00
2018-08-14T05:57:25.356Z,60.40
2018-08-14T05:59:00.191Z,53.00
2018-08-14T06:00:35.402Z,46.60
2018-08-14T06:02:11.147Z,54.40
2018-08-14T06:03:46.591Z,56.00
2018-08-14T06:05:24.124Z,46.60
2018-08-14T06:07:00.176Z,54.40
2018-08-14T06:08:36.628Z,58.60
2018-08-14T06:10:12.094Z,55.60
2018-08-14T06:11:47.882Z,49.40
2018-08-14T06:13:24.548Z,43.40
2018-08-14T06:15:00.656Z,46.00
2018-08-14T06:16:35.896Z,38.60
2018-08-14T06:18:12.458Z,44.00
2018-08-14T06:19:49.249Z,41.40
2018-08-14T06:21:27.718Z,39.80
2018-08-14T06:23:02.916Z,47.60
2018-08-14T06:24:39.537Z,42.60
2018-08-14T06:26:14.467Z,35.80
2018-08-14T06:27:49.718Z,42.20
2018-08-14T06:29:26.334Z,31.00
2018-08-14T06:31:01.313Z,34.40
2018-08-14T06:32:36.309Z,23.40
2018-08-14T06:34:16.147Z,35.40
2018-08-14T06:35:52.523Z,28.60
2018-08-14T06:37:41.286Z,33.60
2018-08-14T06:39:16.792Z,26.00
2018-08-14T06:40:53.708Z,34.80
2018-08-14T06:42:29.152Z,29.80
2018-08-14T06:44:07.599Z,35.80
2018-08-14T06:45:45.097Z,37.60
2018-08-14T06:47:20.382Z,35.20
2018-08-14T06:48:55.768Z,38.00
2018-08-14T06:50:31.763Z,31.00
2018-08-14T06:52:07.798Z,34.00
2018-08-14T06:53:43.027Z,26.00
2018-08-14T06:55:18.632Z,21.40
2018-08-14T06:56:54.910Z,25.00
2018-08-14T06:58:33.167Z,27.60
2018-08-14T07:00:14.867Z,28.60
2018-08-14T07:01:49.962Z,28.20
2018-08-14T07:03:25.105Z,30.80
2018-08-14T07:05:00.663Z,34.60
2018-08-14T07:06:35.760Z,30.20
2018-08-14T07:08:11.071Z,29.80
2018-08-14T07:09:48.452Z,28.60
2018-08-14T07:11:24.820Z,32.20
2018-08-14T07:13:00.118Z,29.20
2018-08-14T07:14:41.131Z,36.60
2018-08-14T07:16:19.442Z,30.00
2018-08-14T07:17:58.756Z,30.80
2018-08-14T07:19:34.626Z,34.60
2018-08-14T07:21:11.828Z,29.40
2018-08-14T07:22:47.759Z,28.20
2018-08-14T07:24:28.590Z,36.60
2018-08-14T07:26:04.408Z,25.60
2018-08-14T07:27:40.785Z,26.40
2018-08-14T07:29:16.807Z,32.60
2018-08-14T07:30:52.533Z,29.20
2018-08-14T07:32:31.043Z,38.20
2018-08-14T07:34:07.777Z,34.20
2018-08-14T07:35:42.987Z,33.20
2018-08-14T07:37:21.503Z,39.00
2018-08-14T07:39:00.289Z,36.60
2018-08-14T07:40:36.633Z,37.40
2018-08-14T07:42:12.317Z,34.60
2018-08-14T07:43:50.267Z,29.80
2018-08-14T07:45:28.542Z,33.60
2018-08-14T07:47:04.596Z,36.00
2018-08-14T07:48:41.238Z,41.00
2018-08-14T07:50:16.718Z,39.00
2018-08-14T07:51:53.000Z,38.60
2018-08-14T07:53:31.980Z,34.60
2018-08-14T07:55:10.695Z,37.40
2018-08-14T07:56:46.417Z,48.00
2018-08-14T07:58:24.353Z,32.20
2018-08-14T08:00:00.615Z,48.80
2018-08-14T08:01:36.631Z,40.40
2018-08-14T08:03:13.945Z,35.00
2018-08-14T08:04:51.818Z,54.80
2018-08-14T08:06:28.770Z,38.80
2018-08-14T08:08:06.603Z,36.00
2018-08-14T08:09:45.650Z,33.80
2018-08-14T08:11:22.399Z,48.40
2018-08-14T08:13:11.631Z,36.00
2018-08-14T08:14:46.724Z,51.20
2018-08-14T08:16:22.530Z,40.20
2018-08-14T08:17:58.446Z,35.40
2018-08-14T08:19:38.352Z,51.00
2018-08-14T08:21:13.971Z,34.80
2018-08-14T08:22:49.932Z,44.00
2018-08-14T08:24:29.704Z,38.00
2018-08-14T08:26:08.167Z,34.80
2018-08-14T08:27:44.945Z,37.80
2018-08-14T08:29:20.819Z,41.00
2018-08-14T08:30:58.035Z,46.40
2018-08-14T08:32:38.055Z,41.60
2018-08-14T08:34:14.566Z,38.40
2018-08-14T08:35:51.382Z,27.60
2018-08-14T08:37:27.665Z,42.00
2018-08-14T08:39:06.209Z,28.40
2018-08-14T08:40:42.772Z,38.20
2018-08-14T08:42:20.412Z,44.80
2018-08-14T08:44:03.786Z,42.80
2018-08-14T08:45:41.647Z,44.00
2018-08-14T08:47:23.441Z,38.40
2018-08-14T08:49:02.304Z,34.60
2018-08-14T08:50:48.945Z,36.00
2018-08-14T08:54:41.661Z,35.60
2018-08-14T08:56:18.933Z,36.80
2018-08-14T08:57:56.577Z,34.40
2018-08-14T08:59:33.465Z,38.80
2018-08-14T09:01:09.907Z,29.80
2018-08-14T09:02:55.600Z,39.80
2018-08-14T09:04:30.995Z,36.40
2018-08-14T09:06:08.588Z,35.20
2018-08-14T09:07:45.617Z,40.40
2018-08-14T09:09:21.725Z,33.00
2018-08-14T09:10:59.437Z,35.00
2018-08-14T09:12:38.276Z,40.40
2018-08-14T09:14:16.217Z,32.80
2018-08-14T09:15:52.689Z,36.60
2018-08-14T09:17:30.531Z,25.40
2018-08-14T09:19:08.545Z,40.80
2018-08-14T09:20:43.568Z,35.20
2018-08-14T09:22:19.486Z,35.00
2018-08-14T09:23:59.522Z,22.40
2018-08-14T09:25:35.430Z,43.60
2018-08-14T09:27:15.816Z,34.60
2018-08-14T09:28:50.857Z,37.60
2018-08-14T09:30:29.122Z,30.40
2018-08-14T09:32:08.269Z,37.00
2018-08-14T09:33:46.518Z,30.00
2018-08-14T09:35:25.362Z,26.20
2018-08-14T09:37:01.530Z,23.60
2018-08-14T09:38:38.318Z,39.00
2018-08-14T09:40:16.508Z,33.40
2018-08-14T09:41:53.000Z,37.00
2018-08-14T09:43:28.058Z,36.00
2018-08-14T09:46:48.608Z,24.20
2018-08-14T09:48:27.592Z,25.60
2018-08-14T09:50:05.366Z,32.00
2018-08-14T09:51:43.018Z,25.80
2018-08-14T09:53:20.006Z,17.60
2018-08-14T09:57:13.918Z,30.00
2018-08-14T09:58:49.943Z,37.40
2018-08-14T10:00:33.108Z,30.40
2018-08-14T10:02:13.244Z,29.20
2018-08-14T10:03:55.173Z,27.00
2018-08-14T10:05:36.831Z,26.20
2018-08-14T10:07:19.115Z,20.20
2018-08-14T10:09:08.706Z,25.80
2018-08-14T10:10:47.943Z,28.60
2018-08-14T10:12:25.201Z,11.60
2018-08-14T10:14:00.358Z,23.80
2018-08-14T10:15:39.566Z,22.80
2018-08-14T10:17:17.569Z,30.40
2018-08-14T10:18:55.316Z,24.60
2018-08-14T10:20:31.716Z,34.00
2018-08-14T10:22:06.777Z,27.00
2018-08-14T10:23:43.191Z,27.40
2018-08-14T10:25:20.189Z,26.40
2018-08-14T10:26:57.061Z,23.20
2018-08-14T10:28:33.343Z,29.40
2018-08-14T10:30:17.964Z,20.40
2018-08-14T10:32:00.701Z,29.60
2018-08-14T10:33:43.436Z,25.20
2018-08-14T10:35:26.444Z,31.80
2018-08-14T10:37:08.689Z,29.60
2018-08-14T10:38:46.324Z,30.60
2018-08-14T10:40:22.790Z,24.00
2018-08-14T10:42:14.155Z,28.40
2018-08-14T10:43:53.599Z,29.60
2018-08-14T10:45:29.332Z,33.80
2018-08-14T10:47:08.685Z,33.20
2018-08-14T10:48:45.786Z,21.20
2018-08-14T10:50:30.288Z,28.40
2018-08-14T10:52:07.388Z,31.80
2018-08-14T10:53:44.450Z,24.80
2018-08-14T10:55:23.591Z,23.80
2018-08-14T10:56:59.816Z,19.00
2018-08-14T10:58:49.231Z,21.80
2018-08-14T11:02:43.746Z,24.00
2018-08-14T11:04:25.265Z,25.40
2018-08-14T11:06:05.008Z,21.80
2018-08-14T11:07:43.175Z,21.20
2018-08-14T11:09:23.517Z,23.40
2018-08-14T11:11:04.217Z,20.20
2018-08-14T11:12:41.765Z,21.20
2018-08-14T11:14:18.086Z,23.40
2018-08-14T11:15:55.995Z,27.00
2018-08-14T11:17:32.697Z,28.00
2018-08-14T11:19:13.712Z,24.40
2018-08-14T11:20:51.442Z,27.20
2018-08-14T11:22:29.555Z,23.00
2018-08-14T11:24:08.693Z,25.80
2018-08-14T11:25:44.186Z,21.40
2018-08-14T11:27:20.893Z,17.40
2018-08-14T11:28:59.269Z,22.00
2018-08-14T11:30:35.872Z,19.20
2018-08-14T11:32:11.375Z,15.00
2018-08-14T11:33:47.868Z,20.40
2018-08-14T11:35:34.605Z,20.80
2018-08-14T11:37:12.684Z,24.20
2018-08-14T11:38:49.525Z,21.00
2018-08-14T11:40:28.121Z,23.60
2018-08-14T11:42:17.345Z,23.00
2018-08-14T11:43:55.499Z,18.40
2018-08-14T11:45:36.837Z,20.20
2018-08-14T11:47:14.309Z,22.60
2018-08-14T11:48:50.370Z,24.60
2018-08-14T11:50:30.671Z,9.00
2018-08-14T11:52:07.474Z,22.60
2018-08-14T11:53:49.707Z,23.60
2018-08-14T11:55:25.459Z,24.60
2018-08-14T11:57:02.992Z,18.40
2018-08-14T11:58:44.655Z,25.00
2018-08-14T12:00:24.944Z,25.00
2018-08-14T12:02:04.901Z,18.80
2018-08-14T12:03:43.428Z,12.20
2018-08-14T12:05:21.809Z,21.60
2018-08-14T12:06:59.504Z,23.00
2018-08-14T12:08:37.101Z,19.80
2018-08-14T12:10:18.892Z,22.20
2018-08-14T12:13:49.702Z,19.60
2018-08-14T12:15:30.260Z,23.60
2018-08-14T12:17:09.610Z,14.60
2018-08-14T12:18:45.927Z,18.40
2018-08-14T12:20:23.897Z,19.60
2018-08-14T12:22:07.514Z,20.40
2018-08-14T12:23:44.720Z,16.00
2018-08-14T12:25:20.802Z,20.40
2018-08-14T12:26:58.397Z,20.80
2018-08-14T12:28:35.688Z,19.00
2018-08-14T12:30:19.380Z,13.60
2018-08-14T12:31:59.202Z,14.40
2018-08-14T12:33:35.483Z,18.00
2018-08-14T12:35:15.249Z,20.60
2018-08-14T12:36:50.893Z,21.20
2018-08-14T12:38:30.153Z,19.00
2018-08-14T12:40:16.245Z,14.40
2018-08-14T12:41:57.520Z,16.80
2018-08-14T12:43:35.031Z,21.80
2018-08-14T12:45:20.567Z,21.00
2018-08-14T12:47:00.330Z,17.60
2018-08-14T12:48:38.608Z,20.60
2018-08-14T12:50:19.657Z,18.40
2018-08-14T12:51:56.781Z,17.80
2018-08-14T12:53:32.464Z,19.60
2018-08-14T12:55:15.328Z,14.80
2018-08-14T12:56:56.258Z,13.80
2018-08-14T12:58:32.407Z,15.60
2018-08-14T13:00:20.549Z,19.60
2018-08-14T13:01:56.282Z,17.40
2018-08-14T13:03:33.962Z,18.00
2018-08-14T13:05:09.878Z,17.80
2018-08-14T13:06:46.552Z,15.00
2018-08-14T13:08:25.440Z,14.40
2018-08-14T13:10:01.221Z,18.20
2018-08-14T13:11:37.433Z,14.00
2018-08-14T13:13:17.159Z,14.60
2018-08-14T13:14:54.020Z,18.00
2018-08-14T13:16:31.424Z,18.00
2018-08-14T13:18:15.562Z,13.00
2018-08-14T13:19:56.012Z,13.40
2018-08-14T13:21:33.107Z,16.20
2018-08-14T13:23:11.089Z,14.40
2018-08-14T13:24:46.313Z,15.20
2018-08-14T13:26:26.611Z,12.60
2018-08-14T13:28:03.456Z,7.80
2018-08-14T13:29:44.829Z,12.20
2018-08-14T13:31:22.177Z,12.60
2018-08-14T13:33:01.349Z,13.20
2018-08-14T13:34:36.936Z,13.60
2018-08-14T13:36:11.988Z,12.40
2018-08-14T13:37:49.994Z,10.40
2018-08-14T13:39:28.848Z,12.20
2018-08-14T13:41:08.488Z,13.60
2018-08-14T13:42:43.772Z,18.20
2018-08-14T13:44:31.420Z,12.40
2018-08-14T13:46:12.265Z,13.40
2018-08-14T13:47:53.336Z,14.20
2018-08-14T13:49:38.400Z,16.60
2018-08-14T13:51:17.351Z,11.20
2018-08-14T13:54:43.474Z,14.60
2018-08-14T13:56:20.026Z,17.80
2018-08-14T13:58:06.648Z,15.20
2018-08-14T13:59:45.739Z,17.40
2018-08-14T14:01:21.047Z,13.40
2018-08-14T14:02:59.281Z,13.80
2018-08-14T14:04:43.332Z,11.60
2018-08-14T14:06:25.143Z,12.00
2018-08-14T14:08:02.544Z,12.20
2018-08-14T14:09:41.585Z,11.60
2018-08-14T14:11:17.064Z,12.20
2018-08-14T14:12:53.040Z,12.80
2018-08-14T14:14:30.523Z,9.60
2018-08-14T14:16:10.633Z,13.00
2018-08-14T14:17:49.096Z,11.80
2018-08-14T14:19:24.451Z,9.80
2018-08-14T14:21:02.407Z,11.20
2018-08-14T14:22:39.205Z,12.00
2018-08-14T14:24:16.312Z,11.00
2018-08-14T14:25:56.485Z,4.20
2018-08-14T14:27:35.590Z,11.20
2018-08-14T14:29:13.618Z,8.20
2018-08-14T14:30:51.482Z,8.20
2018-08-14T14:32:28.572Z,10.00
2018-08-14T14:34:09.000Z,6.00
2018-08-14T14:35:46.217Z,11.80
2018-08-14T14:37:22.337Z,10.00
2018-08-14T14:39:02.048Z,10.00
2018-08-14T14:40:38.617Z,14.80
2018-08-14T14:42:14.309Z,8.20
2018-08-14T14:43:51.668Z,8.60
2018-08-14T14:45:28.093Z,8.40
2018-08-14T14:47:06.175Z,8.00
2018-08-14T14:48:42.279Z,8.60
2018-08-14T14:50:19.140Z,9.00
2018-08-14T14:51:54.161Z,8.80
2018-08-14T14:53:30.836Z,14.20
2018-08-14T14:55:06.303Z,11.00
2018-08-14T14:56:42.012Z,10.00
2018-08-14T14:58:19.884Z,11.40
2018-08-14T14:59:56.687Z,12.00
2018-08-14T15:01:32.628Z,7.00
2018-08-14T15:03:10.417Z,12.40
2018-08-14T15:04:49.849Z,11.60
2018-08-14T15:06:26.192Z,11.00
2018-08-14T15:08:01.311Z,10.60
2018-08-14T15:09:41.384Z,12.40
2018-08-14T15:11:19.354Z,12.40
2018-08-14T15:12:59.321Z,10.00
2018-08-14T15:14:35.857Z,10.00
2018-08-14T15:16:15.091Z,12.20
2018-08-14T15:17:51.379Z,13.00
2018-08-14T15:19:27.902Z,13.00
2018-08-14T15:21:04.037Z,15.40
2018-08-14T15:22:41.800Z,12.40
2018-08-14T15:24:17.169Z,12.80
2018-08-14T15:25:52.271Z,14.00
2018-08-14T15:27:27.791Z,16.00
2018-08-14T15:29:22.289Z,16.80
2018-08-14T15:30:58.865Z,11.80
2018-08-14T15:32:43.445Z,11.60
2018-08-14T15:34:24.849Z,13.60
2018-08-14T15:36:03.730Z,13.40
2018-08-14T15:37:41.725Z,15.60
2018-08-14T15:39:18.487Z,19.00
2018-08-14T15:40:54.836Z,19.00
2018-08-14T15:42:33.791Z,14.80
2018-08-14T15:44:13.255Z,14.20
2018-08-14T15:45:50.944Z,17.40
2018-08-14T15:47:27.965Z,15.60
2018-08-14T15:49:08.141Z,11.20
2018-08-14T15:50:44.042Z,15.60
2018-08-14T15:52:20.215Z,16.60
2018-08-14T15:53:58.664Z,17.80
2018-08-14T15:55:46.508Z,16.60
2018-08-14T15:57:26.292Z,17.00
2018-08-14T16:01:53.036Z,16.80
2018-08-14T16:03:28.664Z,23.20
2018-08-14T16:05:07.335Z,24.40
2018-08-14T16:06:50.555Z,21.00
2018-08-14T16:08:30.543Z,21.60
2018-08-14T16:10:07.178Z,24.20
2018-08-14T16:11:52.628Z,20.20
2018-08-14T16:13:30.294Z,21.80
2018-08-14T16:15:10.426Z,22.20
2018-08-14T16:16:45.510Z,24.20
2018-08-14T16:18:20.732Z,20.40
2018-08-14T16:19:56.450Z,22.00
2018-08-14T16:21:35.790Z,24.00
2018-08-14T16:23:12.620Z,21.60
2018-08-14T16:24:49.903Z,19.80
2018-08-14T16:26:28.179Z,19.80
2018-08-14T16:28:04.799Z,20.00
2018-08-14T16:29:42.721Z,20.20
2018-08-14T16:31:22.480Z,18.60
2018-08-14T16:32:59.786Z,19.20
2018-08-14T16:34:58.111Z,16.60
2018-08-14T16:36:34.982Z,16.20
2018-08-14T16:38:12.580Z,15.80
2018-08-14T16:39:50.245Z,17.20
2018-08-14T16:41:28.786Z,16.00
2018-08-14T16:43:07.516Z,17.40
2018-08-14T16:44:49.486Z,19.60
2018-08-14T16:46:26.669Z,20.80
2018-08-14T16:48:03.789Z,17.00
2018-08-14T16:49:40.080Z,24.20
2018-08-14T16:51:20.760Z,18.40
2018-08-14T16:53:01.799Z,13.80
2018-08-14T16:56:49.541Z,19.00
2018-08-14T16:58:28.465Z,19.20
2018-08-14T17:00:05.372Z,16.80
2018-08-14T17:01:41.302Z,24.60
2018-08-14T17:03:19.312Z,24.40
2018-08-14T17:04:57.627Z,21.20
2018-08-14T17:06:42.533Z,23.60
2018-08-14T17:08:32.071Z,22.40
2018-08-14T17:10:08.318Z,20.80
2018-08-14T17:11:47.987Z,24.00
2018-08-14T17:13:25.217Z,23.40
2018-08-14T17:15:11.063Z,22.40
2018-08-14T17:16:53.467Z,23.80
2018-08-14T17:18:35.355Z,23.60
2018-08-14T17:20:10.078Z,20.20
2018-08-14T17:21:48.003Z,19.00
2018-08-14T17:23:24.879Z,20.40
2018-08-14T17:25:01.435Z,23.40
2018-08-14T17:26:40.575Z,22.20
2018-08-14T17:28:23.375Z,20.40
2018-08-14T17:30:05.423Z,17.00
2018-08-14T17:31:52.231Z,19.40
2018-08-14T17:33:35.598Z,20.00
2018-08-14T17:35:14.929Z,19.20
2018-08-14T17:36:51.567Z,22.60
2018-08-14T17:38:28.729Z,20.60
2018-08-14T17:40:06.288Z,17.00
2018-08-14T17:41:44.796Z,16.60
2018-08-14T17:43:24.483Z,17.60
2018-08-14T17:45:04.348Z,22.00
2018-08-14T17:46:42.263Z,20.00
2018-08-14T17:48:20.898Z,20.00
2018-08-14T17:50:06.882Z,14.00
2018-08-14T17:51:48.617Z,17.00
2018-08-14T17:53:34.736Z,15.80
2018-08-14T17:55:14.215Z,17.00
2018-08-14T17:56:54.036Z,14.60
2018-08-14T17:58:35.998Z,15.80
2018-08-14T18:00:21.228Z,15.20
2018-08-14T18:02:02.345Z,18.80
2018-08-14T18:03:44.502Z,18.00
2018-08-14T18:05:23.468Z,14.20
2018-08-14T18:07:01.049Z,15.80
2018-08-14T18:08:39.657Z,16.00
2018-08-14T18:10:18.306Z,17.60
2018-08-14T18:11:58.042Z,20.60
2018-08-14T18:13:38.512Z,19.20
2018-08-14T18:15:21.106Z,17.60
2018-08-14T18:16:59.791Z,20.00
2018-08-14T18:18:39.892Z,19.00
2018-08-14T18:20:30.421Z,18.40
2018-08-14T18:22:12.840Z,18.80
2018-08-14T18:23:51.325Z,15.40
2018-08-14T18:25:29.713Z,21.40
2018-08-14T18:27:10.508Z,14.00
2018-08-14T18:28:51.629Z,12.60
2018-08-14T18:30:34.966Z,18.20
2018-08-14T18:32:14.403Z,17.00
2018-08-14T18:33:54.610Z,15.80
2018-08-14T18:35:37.054Z,22.60
2018-08-14T18:37:21.083Z,15.60
2018-08-14T18:39:04.728Z,20.80
2018-08-14T18:40:45.150Z,23.00
2018-08-14T18:42:25.931Z,22.00
2018-08-14T18:44:09.955Z,22.20
2018-08-14T18:45:53.594Z,21.00
2018-08-14T18:47:31.510Z,20.00
2018-08-14T18:49:15.265Z,22.00
2018-08-14T18:50:58.180Z,21.20
2018-08-14T18:52:41.741Z,17.80
2018-08-14T18:54:21.530Z,18.60
2018-08-14T18:56:01.442Z,22.80
2018-08-14T18:57:47.798Z,20.40
2018-08-14T18:59:27.983Z,21.00
2018-08-14T19:01:08.716Z,21.60
2018-08-14T19:02:53.460Z,22.80
2018-08-14T19:04:36.131Z,21.00
2018-08-14T19:08:05.272Z,19.20
2018-08-14T19:11:50.406Z,18.80
2018-08-14T19:13:39.665Z,22.00
2018-08-14T19:15:35.755Z,21.80
2018-08-14T19:17:15.661Z,22.80
2018-08-14T19:18:57.946Z,25.40
2018-08-14T19:20:51.412Z,24.20
2018-08-14T19:22:31.429Z,20.00
2018-08-14T19:24:19.624Z,22.00
2018-08-14T19:26:00.239Z,18.80
2018-08-14T19:27:44.139Z,23.40
2018-08-14T19:29:32.790Z,20.20
2018-08-14T19:31:14.769Z,28.40
2018-08-14T19:32:56.269Z,21.00
2018-08-14T19:34:35.360Z,25.60
2018-08-14T19:36:20.584Z,21.40
2018-08-14T19:37:58.639Z,25.20
2018-08-14T19:39:37.303Z,20.20
2018-08-14T19:41:21.566Z,18.00
2018-08-14T19:42:59.764Z,20.00
2018-08-14T19:44:42.245Z,22.00
2018-08-14T19:46:30.793Z,20.60
2018-08-14T19:48:12.402Z,20.80
2018-08-14T19:49:58.543Z,23.40
2018-08-14T19:51:44.565Z,17.80
2018-08-14T19:53:34.492Z,10.20
2018-08-14T19:55:17.495Z,13.40
2018-08-14T19:57:00.240Z,16.20
2018-08-14T19:58:49.808Z,16.00
2018-08-14T20:00:31.393Z,19.40
2018-08-14T20:02:11.204Z,18.80
2018-08-14T20:03:50.071Z,14.40
2018-08-14T20:05:36.301Z,19.80
2018-08-14T20:07:25.058Z,16.40
2018-08-14T20:09:08.819Z,18.20
2018-08-14T20:10:54.843Z,17.60
2018-08-14T20:12:37.975Z,17.00
2018-08-14T20:14:22.552Z,15.20
2018-08-14T20:16:06.018Z,17.60
2018-08-14T20:17:51.808Z,15.80
2018-08-14T20:19:32.569Z,18.20
2018-08-14T20:21:19.272Z,20.60
2018-08-14T20:23:04.585Z,16.80
2018-08-14T20:24:47.637Z,13.40
2018-08-14T20:26:28.338Z,18.20
2018-08-14T20:28:20.764Z,13.60
2018-08-14T20:30:07.295Z,14.20
2018-08-14T20:31:49.849Z,15.00
2018-08-14T20:33:32.041Z,15.00
2018-08-14T20:35:13.269Z,15.60
2018-08-14T20:36:54.332Z,19.20
2018-08-14T20:38:36.504Z,17.20
2018-08-14T20:40:23.160Z,19.80
2018-08-14T20:42:11.525Z,14.20
2018-08-14T20:43:59.045Z,19.60
2018-08-14T20:45:46.494Z,18.40
2018-08-14T20:47:31.732Z,21.00
2018-08-14T20:49:12.752Z,20.40
2018-08-14T20:50:49.393Z,18.60
2018-08-14T20:52:29.677Z,18.40
2018-08-14T20:54:07.797Z,22.40
2018-08-14T20:55:53.054Z,18.20
2018-08-14T20:57:37.439Z,17.40
2018-08-14T20:59:24.969Z,16.60
2018-08-14T21:01:13.179Z,19.80
2018-08-14T21:02:53.024Z,20.40
2018-08-14T21:04:37.739Z,21.40
2018-08-14T21:06:17.484Z,20.40
2018-08-14T21:07:58.755Z,23.40
2018-08-14T21:09:38.574Z,23.00
2018-08-14T21:11:21.230Z,19.60
2018-08-14T21:13:06.714Z,20.20
2018-08-14T21:14:50.433Z,22.80
2018-08-14T21:16:36.319Z,20.60
2018-08-14T21:18:19.251Z,21.60
2018-08-14T21:20:00.033Z,26.40
2018-08-14T21:21:47.388Z,20.80
2018-08-14T21:23:43.459Z,20.60
2018-08-14T21:25:41.305Z,19.40
2018-08-14T21:27:26.703Z,22.20
2018-08-14T21:29:05.539Z,16.00
2018-08-14T21:30:58.683Z,27.60